sensor_id;sensor_type;location;lat;lon;timestamp;P1;durP1;ratioP1;P2;durP2;ratioP2
76131;SDS011;64877;50.994;13.650;2023-07-02T00:01:03;4.13;;;1.50;;
76131;SDS011;64877;50.994;13.650;2023-07-02T00:03:28;3.15;;;1.30;;
76131;SDS011;64877;50.994;13.650;2023-07-02T00:05:54;4.63;;;1.67;;
76131;SDS011;64877;50.994;13.650;2023-07-02T00:08:21;3.60;;;1.70;;
76131;SDS011;64877;50.994;13.650;2023-07-02T00:10:47;3.30;;;1.25;;
76131;SDS011;64877;50.994;13.650;2023-07-02T00:13:13;4.90;;;1.52;;
76131;SDS011;64877;50.994;13.650;2023-07-02T00:15:39;2.95;;;1.35;;
76131;SDS011;64877;50.994;13.650;2023-07-02T00:18:04;4.80;;;1.15;;
76131;SDS011;64877;50.994;13.650;2023-07-02T00:20:30;4.03;;;1.30;;
76131;SDS011;64877;50.994;13.650;2023-07-02T00:22:59;3.35;;;1.80;;
76131;SDS011;64877;50.994;13.650;2023-07-02T00:25:25;3.15;;;1.48;;
76131;SDS011;64877;50.994;13.650;2023-07-02T00:27:51;3.03;;;1.35;;
76131;SDS011;64877;50.994;13.650;2023-07-02T00:30:16;1.85;;;1.10;;
76131;SDS011;64877;50.994;13.650;2023-07-02T00:32:41;3.10;;;1.50;;
76131;SDS011;64877;50.994;13.650;2023-07-02T00:35:07;3.50;;;1.10;;
76131;SDS011;64877;50.994;13.650;2023-07-02T00:37:32;2.55;;;1.20;;
76131;SDS011;64877;50.994;13.650;2023-07-02T00:39:58;2.55;;;1.05;;
76131;SDS011;64877;50.994;13.650;2023-07-02T00:42:23;2.70;;;1.00;;
76131;SDS011;64877;50.994;13.650;2023-07-02T00:44:49;2.47;;;1.00;;
76131;SDS011;64877;50.994;13.650;2023-07-02T00:47:17;5.32;;;1.00;;
76131;SDS011;64877;50.994;13.650;2023-07-02T00:49:42;1.95;;;1.08;;
76131;SDS011;64877;50.994;13.650;2023-07-02T00:52:08;1.80;;;0.82;;
76131;SDS011;64877;50.994;13.650;2023-07-02T00:54:35;2.72;;;1.30;;
76131;SDS011;64877;50.994;13.650;2023-07-02T00:57:01;2.10;;;0.90;;
76131;SDS011;64877;50.994;13.650;2023-07-02T00:59:27;3.90;;;0.95;;
76131;SDS011;64877;50.994;13.650;2023-07-02T01:01:54;1.67;;;0.80;;
76131;SDS011;64877;50.994;13.650;2023-07-02T01:06:52;1.90;;;0.90;;
76131;SDS011;64877;50.994;13.650;2023-07-02T01:09:22;1.63;;;0.90;;
76131;SDS011;64877;50.994;13.650;2023-07-02T01:11:59;4.05;;;1.15;;
76131;SDS011;64877;50.994;13.650;2023-07-02T01:14:43;1.85;;;0.95;;
76131;SDS011;64877;50.994;13.650;2023-07-02T01:17:13;2.08;;;0.88;;
76131;SDS011;64877;50.994;13.650;2023-07-02T01:22:09;4.53;;;1.17;;
76131;SDS011;64877;50.994;13.650;2023-07-02T01:24:36;1.92;;;0.90;;
76131;SDS011;64877;50.994;13.650;2023-07-02T01:27:03;2.13;;;1.08;;
76131;SDS011;64877;50.994;13.650;2023-07-02T01:29:30;2.05;;;1.00;;
76131;SDS011;64877;50.994;13.650;2023-07-02T01:31:55;3.05;;;1.00;;
76131;SDS011;64877;50.994;13.650;2023-07-02T01:34:22;2.42;;;1.02;;
76131;SDS011;64877;50.994;13.650;2023-07-02T01:36:47;1.85;;;1.00;;
76131;SDS011;64877;50.994;13.650;2023-07-02T01:39:13;2.88;;;1.13;;
76131;SDS011;64877;50.994;13.650;2023-07-02T01:41:44;2.92;;;1.10;;
76131;SDS011;64877;50.994;13.650;2023-07-02T01:44:15;2.20;;;0.80;;
76131;SDS011;64877;50.994;13.650;2023-07-02T01:46:40;3.05;;;1.20;;
76131;SDS011;64877;50.994;13.650;2023-07-02T01:49:05;2.70;;;1.40;;
76131;SDS011;64877;50.994;13.650;2023-07-02T01:51:31;1.77;;;0.98;;
76131;SDS011;64877;50.994;13.650;2023-07-02T01:53:56;2.40;;;1.00;;
76131;SDS011;64877;50.994;13.650;2023-07-02T01:56:21;2.25;;;0.95;;
76131;SDS011;64877;50.994;13.650;2023-07-02T01:58:47;3.35;;;0.80;;
76131;SDS011;64877;50.994;13.650;2023-07-02T02:01:12;2.17;;;1.10;;
76131;SDS011;64877;50.994;13.650;2023-07-02T02:03:38;2.50;;;1.25;;
76131;SDS011;64877;50.994;13.650;2023-07-02T02:06:03;1.80;;;1.05;;
76131;SDS011;64877;50.994;13.650;2023-07-02T02:08:28;2.30;;;1.20;;
76131;SDS011;64877;50.994;13.650;2023-07-02T02:10:54;2.58;;;1.10;;
76131;SDS011;64877;50.994;13.650;2023-07-02T02:13:19;2.22;;;1.25;;
76131;SDS011;64877;50.994;13.650;2023-07-02T02:15:44;1.80;;;1.00;;
76131;SDS011;64877;50.994;13.650;2023-07-02T02:18:10;1.92;;;1.02;;
76131;SDS011;64877;50.994;13.650;2023-07-02T02:20:35;1.60;;;0.90;;
76131;SDS011;64877;50.994;13.650;2023-07-02T02:23:01;2.35;;;1.30;;
76131;SDS011;64877;50.994;13.650;2023-07-02T02:25:26;3.00;;;1.17;;
76131;SDS011;64877;50.994;13.650;2023-07-02T02:27:51;1.92;;;0.90;;
76131;SDS011;64877;50.994;13.650;2023-07-02T02:30:17;2.72;;;1.00;;
76131;SDS011;64877;50.994;13.650;2023-07-02T02:32:42;2.35;;;1.10;;
76131;SDS011;64877;50.994;13.650;2023-07-02T02:35:08;2.50;;;1.08;;
76131;SDS011;64877;50.994;13.650;2023-07-02T02:37:34;3.60;;;0.90;;
76131;SDS011;64877;50.994;13.650;2023-07-02T02:40:04;1.50;;;0.80;;
76131;SDS011;64877;50.994;13.650;2023-07-02T02:42:31;2.10;;;1.10;;
76131;SDS011;64877;50.994;13.650;2023-07-02T02:44:56;1.67;;;0.90;;
76131;SDS011;64877;50.994;13.650;2023-07-02T02:47:22;1.48;;;0.70;;
76131;SDS011;64877;50.994;13.650;2023-07-02T02:49:47;3.53;;;1.10;;
76131;SDS011;64877;50.994;13.650;2023-07-02T02:52:13;1.52;;;0.80;;
76131;SDS011;64877;50.994;13.650;2023-07-02T02:54:39;2.67;;;0.95;;
76131;SDS011;64877;50.994;13.650;2023-07-02T02:57:05;1.92;;;1.08;;
76131;SDS011;64877;50.994;13.650;2023-07-02T02:59:30;2.47;;;1.10;;
76131;SDS011;64877;50.994;13.650;2023-07-02T03:01:55;3.35;;;0.88;;
76131;SDS011;64877;50.994;13.650;2023-07-02T03:04:21;3.90;;;1.23;;
76131;SDS011;64877;50.994;13.650;2023-07-02T03:06:49;2.38;;;0.80;;
76131;SDS011;64877;50.994;13.650;2023-07-02T03:09:14;2.25;;;1.30;;
76131;SDS011;64877;50.994;13.650;2023-07-02T03:11:40;1.83;;;0.90;;
76131;SDS011;64877;50.994;13.650;2023-07-02T03:14:05;2.65;;;1.00;;
76131;SDS011;64877;50.994;13.650;2023-07-02T03:16:30;2.42;;;0.93;;
76131;SDS011;64877;50.994;13.650;2023-07-02T03:18:56;3.42;;;0.90;;
76131;SDS011;64877;50.994;13.650;2023-07-02T03:21:21;1.48;;;0.82;;
76131;SDS011;64877;50.994;13.650;2023-07-02T03:23:46;2.75;;;0.90;;
76131;SDS011;64877;50.994;13.650;2023-07-02T03:26:12;1.40;;;0.80;;
76131;SDS011;64877;50.994;13.650;2023-07-02T03:28:37;2.95;;;0.93;;
76131;SDS011;64877;50.994;13.650;2023-07-02T03:31:03;2.97;;;1.00;;
76131;SDS011;64877;50.994;13.650;2023-07-02T03:33:28;2.05;;;1.05;;
76131;SDS011;64877;50.994;13.650;2023-07-02T03:35:53;2.08;;;1.00;;
76131;SDS011;64877;50.994;13.650;2023-07-02T03:38:19;1.73;;;0.85;;
76131;SDS011;64877;50.994;13.650;2023-07-02T03:40:44;2.33;;;1.15;;
76131;SDS011;64877;50.994;13.650;2023-07-02T03:43:10;1.65;;;0.98;;
76131;SDS011;64877;50.994;13.650;2023-07-02T03:45:35;3.45;;;1.50;;
76131;SDS011;64877;50.994;13.650;2023-07-02T03:48:00;1.45;;;0.77;;
76131;SDS011;64877;50.994;13.650;2023-07-02T03:50:26;1.80;;;0.90;;
76131;SDS011;64877;50.994;13.650;2023-07-02T03:52:51;3.28;;;1.48;;
76131;SDS011;64877;50.994;13.650;2023-07-02T03:55:16;3.33;;;1.20;;
76131;SDS011;64877;50.994;13.650;2023-07-02T03:57:42;1.98;;;0.90;;
76131;SDS011;64877;50.994;13.650;2023-07-02T04:00:07;2.53;;;0.90;;
76131;SDS011;64877;50.994;13.650;2023-07-02T04:02:35;2.90;;;1.20;;
76131;SDS011;64877;50.994;13.650;2023-07-02T04:05:00;1.88;;;1.00;;
76131;SDS011;64877;50.994;13.650;2023-07-02T04:07:27;2.85;;;0.90;;
76131;SDS011;64877;50.994;13.650;2023-07-02T04:09:53;1.73;;;1.10;;
76131;SDS011;64877;50.994;13.650;2023-07-02T04:12:18;2.00;;;1.20;;
76131;SDS011;64877;50.994;13.650;2023-07-02T04:14:43;2.75;;;0.77;;
76131;SDS011;64877;50.994;13.650;2023-07-02T04:17:09;2.72;;;1.05;;
76131;SDS011;64877;50.994;13.650;2023-07-02T04:19:34;4.03;;;1.38;;
76131;SDS011;64877;50.994;13.650;2023-07-02T04:21:59;6.20;;;1.30;;
76131;SDS011;64877;50.994;13.650;2023-07-02T04:24:25;2.22;;;1.20;;
76131;SDS011;64877;50.994;13.650;2023-07-02T04:26:51;1.50;;;0.90;;
76131;SDS011;64877;50.994;13.650;2023-07-02T04:29:17;1.83;;;0.98;;
76131;SDS011;64877;50.994;13.650;2023-07-02T04:31:43;2.38;;;1.20;;
76131;SDS011;64877;50.994;13.650;2023-07-02T04:34:08;3.05;;;1.10;;
76131;SDS011;64877;50.994;13.650;2023-07-02T04:36:34;3.05;;;1.10;;
76131;SDS011;64877;50.994;13.650;2023-07-02T04:38:59;3.40;;;1.10;;
76131;SDS011;64877;50.994;13.650;2023-07-02T04:41:25;3.90;;;1.00;;
76131;SDS011;64877;50.994;13.650;2023-07-02T04:43:51;3.58;;;1.70;;
76131;SDS011;64877;50.994;13.650;2023-07-02T04:46:17;4.53;;;1.20;;
76131;SDS011;64877;50.994;13.650;2023-07-02T04:48:43;1.92;;;1.33;;
76131;SDS011;64877;50.994;13.650;2023-07-02T04:51:08;3.05;;;1.33;;
76131;SDS011;64877;50.994;13.650;2023-07-02T04:53:33;2.50;;;1.10;;
76131;SDS011;64877;50.994;13.650;2023-07-02T04:55:59;1.90;;;1.20;;
76131;SDS011;64877;50.994;13.650;2023-07-02T04:58:24;2.50;;;1.15;;
76131;SDS011;64877;50.994;13.650;2023-07-02T05:00:50;2.40;;;1.13;;
76131;SDS011;64877;50.994;13.650;2023-07-02T05:03:15;2.47;;;1.05;;
76131;SDS011;64877;50.994;13.650;2023-07-02T05:05:40;4.88;;;1.30;;
76131;SDS011;64877;50.994;13.650;2023-07-02T05:08:06;3.00;;;1.08;;
76131;SDS011;64877;50.994;13.650;2023-07-02T05:10:31;3.22;;;0.90;;
76131;SDS011;64877;50.994;13.650;2023-07-02T05:12:57;3.50;;;1.17;;
76131;SDS011;64877;50.994;13.650;2023-07-02T05:15:23;4.05;;;1.30;;
76131;SDS011;64877;50.994;13.650;2023-07-02T05:17:49;3.28;;;1.27;;
76131;SDS011;64877;50.994;13.650;2023-07-02T05:20:14;4.30;;;1.33;;
76131;SDS011;64877;50.994;13.650;2023-07-02T05:22:40;4.35;;;1.48;;
76131;SDS011;64877;50.994;13.650;2023-07-02T05:25:05;3.35;;;1.27;;
76131;SDS011;64877;50.994;13.650;2023-07-02T05:27:31;2.28;;;1.08;;
76131;SDS011;64877;50.994;13.650;2023-07-02T05:29:56;2.05;;;1.13;;
76131;SDS011;64877;50.994;13.650;2023-07-02T05:32:22;1.83;;;1.20;;
76131;SDS011;64877;50.994;13.650;2023-07-02T05:34:47;3.88;;;1.23;;
76131;SDS011;64877;50.994;13.650;2023-07-02T05:37:13;3.08;;;1.35;;
76131;SDS011;64877;50.994;13.650;2023-07-02T05:39:38;3.58;;;1.45;;
76131;SDS011;64877;50.994;13.650;2023-07-02T05:42:04;2.97;;;1.40;;
76131;SDS011;64877;50.994;13.650;2023-07-02T05:44:29;2.83;;;1.10;;
76131;SDS011;64877;50.994;13.650;2023-07-02T05:46:55;1.88;;;1.10;;
76131;SDS011;64877;50.994;13.650;2023-07-02T05:49:20;3.95;;;1.23;;
76131;SDS011;64877;50.994;13.650;2023-07-02T05:51:45;2.83;;;1.38;;
76131;SDS011;64877;50.994;13.650;2023-07-02T05:54:11;6.70;;;1.40;;
76131;SDS011;64877;50.994;13.650;2023-07-02T05:56:36;3.55;;;1.40;;
76131;SDS011;64877;50.994;13.650;2023-07-02T05:59:02;3.70;;;1.20;;
76131;SDS011;64877;50.994;13.650;2023-07-02T06:01:27;2.50;;;1.40;;
76131;SDS011;64877;50.994;13.650;2023-07-02T06:03:52;7.38;;;1.13;;
76131;SDS011;64877;50.994;13.650;2023-07-02T06:06:19;2.70;;;1.30;;
76131;SDS011;64877;50.994;13.650;2023-07-02T06:08:47;3.67;;;1.30;;
76131;SDS011;64877;50.994;13.650;2023-07-02T06:11:13;4.32;;;1.80;;
76131;SDS011;64877;50.994;13.650;2023-07-02T06:13:38;6.55;;;1.38;;
76131;SDS011;64877;50.994;13.650;2023-07-02T06:16:03;2.25;;;1.42;;
76131;SDS011;64877;50.994;13.650;2023-07-02T06:18:29;3.17;;;1.80;;
76131;SDS011;64877;50.994;13.650;2023-07-02T06:20:54;4.43;;;1.23;;
76131;SDS011;64877;50.994;13.650;2023-07-02T06:23:19;2.35;;;1.38;;
76131;SDS011;64877;50.994;13.650;2023-07-02T06:25:45;2.47;;;1.38;;
76131;SDS011;64877;50.994;13.650;2023-07-02T06:28:10;3.45;;;1.23;;
76131;SDS011;64877;50.994;13.650;2023-07-02T06:30:35;3.92;;;1.58;;
76131;SDS011;64877;50.994;13.650;2023-07-02T06:33:01;4.97;;;1.65;;
76131;SDS011;64877;50.994;13.650;2023-07-02T06:35:26;2.92;;;1.85;;
76131;SDS011;64877;50.994;13.650;2023-07-02T06:37:52;2.22;;;1.40;;
76131;SDS011;64877;50.994;13.650;2023-07-02T06:40:17;3.38;;;1.50;;
76131;SDS011;64877;50.994;13.650;2023-07-02T06:42:43;2.97;;;2.08;;
76131;SDS011;64877;50.994;13.650;2023-07-02T06:45:08;3.33;;;1.85;;
76131;SDS011;64877;50.994;13.650;2023-07-02T06:47:34;3.70;;;1.42;;
76131;SDS011;64877;50.994;13.650;2023-07-02T06:49:59;4.55;;;1.80;;
76131;SDS011;64877;50.994;13.650;2023-07-02T06:52:24;2.67;;;1.40;;
76131;SDS011;64877;50.994;13.650;2023-07-02T06:54:50;2.42;;;1.40;;
76131;SDS011;64877;50.994;13.650;2023-07-02T06:57:16;2.00;;;1.30;;
76131;SDS011;64877;50.994;13.650;2023-07-02T06:59:41;3.75;;;1.67;;
76131;SDS011;64877;50.994;13.650;2023-07-02T07:02:06;3.78;;;1.23;;
76131;SDS011;64877;50.994;13.650;2023-07-02T07:04:32;3.38;;;1.65;;
76131;SDS011;64877;50.994;13.650;2023-07-02T07:06:59;3.63;;;1.95;;
76131;SDS011;64877;50.994;13.650;2023-07-02T07:09:25;3.42;;;1.42;;
76131;SDS011;64877;50.994;13.650;2023-07-02T07:11:50;3.08;;;1.35;;
76131;SDS011;64877;50.994;13.650;2023-07-02T07:14:16;3.40;;;1.80;;
76131;SDS011;64877;50.994;13.650;2023-07-02T07:16:41;3.35;;;1.77;;
76131;SDS011;64877;50.994;13.650;2023-07-02T07:19:06;3.65;;;1.90;;
76131;SDS011;64877;50.994;13.650;2023-07-02T07:21:33;3.42;;;1.80;;
76131;SDS011;64877;50.994;13.650;2023-07-02T07:24:01;5.78;;;1.75;;
76131;SDS011;64877;50.994;13.650;2023-07-02T07:26:27;2.60;;;1.60;;
76131;SDS011;64877;50.994;13.650;2023-07-02T07:28:52;3.97;;;2.17;;
76131;SDS011;64877;50.994;13.650;2023-07-02T07:31:20;2.80;;;1.70;;
76131;SDS011;64877;50.994;13.650;2023-07-02T07:33:46;3.67;;;2.45;;
76131;SDS011;64877;50.994;13.650;2023-07-02T07:36:11;5.00;;;1.98;;
76131;SDS011;64877;50.994;13.650;2023-07-02T07:38:37;3.28;;;1.90;;
76131;SDS011;64877;50.994;13.650;2023-07-02T07:41:03;3.15;;;1.60;;
76131;SDS011;64877;50.994;13.650;2023-07-02T07:43:28;3.78;;;1.67;;
76131;SDS011;64877;50.994;13.650;2023-07-02T07:45:53;2.92;;;1.48;;
76131;SDS011;64877;50.994;13.650;2023-07-02T07:48:19;4.75;;;1.70;;
76131;SDS011;64877;50.994;13.650;2023-07-02T07:50:46;4.93;;;1.48;;
76131;SDS011;64877;50.994;13.650;2023-07-02T07:53:12;2.47;;;1.25;;
76131;SDS011;64877;50.994;13.650;2023-07-02T07:55:37;2.65;;;1.67;;
76131;SDS011;64877;50.994;13.650;2023-07-02T07:58:03;3.00;;;1.70;;
76131;SDS011;64877;50.994;13.650;2023-07-02T08:00:28;3.88;;;1.95;;
76131;SDS011;64877;50.994;13.650;2023-07-02T08:02:53;3.38;;;1.73;;
76131;SDS011;64877;50.994;13.650;2023-07-02T08:05:20;2.88;;;1.20;;
76131;SDS011;64877;50.994;13.650;2023-07-02T08:07:46;3.35;;;1.90;;
76131;SDS011;64877;50.994;13.650;2023-07-02T08:10:11;3.22;;;1.40;;
76131;SDS011;64877;50.994;13.650;2023-07-02T08:12:37;4.68;;;1.95;;
76131;SDS011;64877;50.994;13.650;2023-07-02T08:15:02;4.50;;;1.80;;
76131;SDS011;64877;50.994;13.650;2023-07-02T08:17:28;6.28;;;1.67;;
76131;SDS011;64877;50.994;13.650;2023-07-02T08:19:55;4.93;;;1.73;;
76131;SDS011;64877;50.994;13.650;2023-07-02T08:22:21;2.35;;;1.40;;
76131;SDS011;64877;50.994;13.650;2023-07-02T08:24:46;3.00;;;1.30;;
76131;SDS011;64877;50.994;13.650;2023-07-02T08:27:14;3.53;;;1.40;;
76131;SDS011;64877;50.994;13.650;2023-07-02T08:29:42;4.47;;;1.30;;
76131;SDS011;64877;50.994;13.650;2023-07-02T08:32:07;2.20;;;1.33;;
76131;SDS011;64877;50.994;13.650;2023-07-02T08:34:32;3.35;;;1.55;;
76131;SDS011;64877;50.994;13.650;2023-07-02T08:36:58;2.50;;;1.30;;
76131;SDS011;64877;50.994;13.650;2023-07-02T08:39:23;2.72;;;1.30;;
76131;SDS011;64877;50.994;13.650;2023-07-02T08:41:49;4.07;;;1.20;;
76131;SDS011;64877;50.994;13.650;2023-07-02T08:44:14;2.53;;;1.20;;
76131;SDS011;64877;50.994;13.650;2023-07-02T08:46:44;1.70;;;1.05;;
76131;SDS011;64877;50.994;13.650;2023-07-02T08:49:09;3.58;;;1.40;;
76131;SDS011;64877;50.994;13.650;2023-07-02T08:51:35;3.20;;;1.85;;
76131;SDS011;64877;50.994;13.650;2023-07-02T08:54:01;2.92;;;1.30;;
76131;SDS011;64877;50.994;13.650;2023-07-02T08:56:27;5.70;;;1.10;;
76131;SDS011;64877;50.994;13.650;2023-07-02T08:58:53;2.95;;;1.30;;
76131;SDS011;64877;50.994;13.650;2023-07-02T09:01:18;2.78;;;1.05;;
76131;SDS011;64877;50.994;13.650;2023-07-02T09:03:44;3.22;;;1.30;;
76131;SDS011;64877;50.994;13.650;2023-07-02T09:06:09;4.05;;;1.27;;
76131;SDS011;64877;50.994;13.650;2023-07-02T09:08:36;3.33;;;1.00;;
76131;SDS011;64877;50.994;13.650;2023-07-02T09:11:05;2.80;;;1.70;;
76131;SDS011;64877;50.994;13.650;2023-07-02T09:13:41;3.63;;;1.23;;
76131;SDS011;64877;50.994;13.650;2023-07-02T09:16:31;2.60;;;1.70;;
76131;SDS011;64877;50.994;13.650;2023-07-02T09:19:01;2.70;;;1.15;;
76131;SDS011;64877;50.994;13.650;2023-07-02T09:21:37;5.43;;;1.73;;
76131;SDS011;64877;50.994;13.650;2023-07-02T09:26:48;4.40;;;1.60;;
76131;SDS011;64877;50.994;13.650;2023-07-02T09:29:37;2.90;;;1.10;;
76131;SDS011;64877;50.994;13.650;2023-07-02T09:32:04;3.70;;;1.45;;
76131;SDS011;64877;50.994;13.650;2023-07-02T09:34:34;2.67;;;1.27;;
76131;SDS011;64877;50.994;13.650;2023-07-02T09:39:27;2.88;;;1.50;;
76131;SDS011;64877;50.994;13.650;2023-07-02T09:41:54;2.75;;;1.20;;
76131;SDS011;64877;50.994;13.650;2023-07-02T09:44:22;4.50;;;1.20;;
76131;SDS011;64877;50.994;13.650;2023-07-02T09:46:53;2.92;;;1.30;;
76131;SDS011;64877;50.994;13.650;2023-07-02T09:49:23;2.97;;;1.13;;
76131;SDS011;64877;50.994;13.650;2023-07-02T09:51:50;5.20;;;1.67;;
76131;SDS011;64877;50.994;13.650;2023-07-02T09:54:16;2.30;;;1.15;;
76131;SDS011;64877;50.994;13.650;2023-07-02T09:56:45;3.35;;;1.45;;
76131;SDS011;64877;50.994;13.650;2023-07-02T09:59:11;2.53;;;1.00;;
76131;SDS011;64877;50.994;13.650;2023-07-02T10:01:36;2.83;;;1.33;;
76131;SDS011;64877;50.994;13.650;2023-07-02T10:04:14;4.38;;;2.15;;
76131;SDS011;64877;50.994;13.650;2023-07-02T10:06:52;3.92;;;1.83;;
76131;SDS011;64877;50.994;13.650;2023-07-02T10:09:19;4.70;;;1.70;;
76131;SDS011;64877;50.994;13.650;2023-07-02T10:11:45;3.80;;;1.65;;
76131;SDS011;64877;50.994;13.650;2023-07-02T10:14:11;2.40;;;1.50;;
76131;SDS011;64877;50.994;13.650;2023-07-02T10:19:18;3.67;;;1.50;;
76131;SDS011;64877;50.994;13.650;2023-07-02T10:21:44;3.10;;;1.40;;
76131;SDS011;64877;50.994;13.650;2023-07-02T10:24:15;3.53;;;1.50;;
76131;SDS011;64877;50.994;13.650;2023-07-02T10:27:01;2.35;;;1.40;;
76131;SDS011;64877;50.994;13.650;2023-07-02T10:29:28;6.75;;;1.65;;
76131;SDS011;64877;50.994;13.650;2023-07-02T10:31:54;2.15;;;1.30;;
76131;SDS011;64877;50.994;13.650;2023-07-02T10:34:31;2.65;;;1.20;;
76131;SDS011;64877;50.994;13.650;2023-07-02T10:37:02;3.00;;;1.70;;
76131;SDS011;64877;50.994;13.650;2023-07-02T10:39:31;3.45;;;1.33;;
76131;SDS011;64877;50.994;13.650;2023-07-02T10:42:07;2.33;;;1.00;;
76131;SDS011;64877;50.994;13.650;2023-07-02T10:44:33;3.78;;;1.60;;
76131;SDS011;64877;50.994;13.650;2023-07-02T10:46:59;2.75;;;1.10;;
76131;SDS011;64877;50.994;13.650;2023-07-02T10:49:31;10.23;;;2.65;;
76131;SDS011;64877;50.994;13.650;2023-07-02T10:52:01;3.47;;;1.05;;
76131;SDS011;64877;50.994;13.650;2023-07-02T10:54:44;3.90;;;1.33;;
76131;SDS011;64877;50.994;13.650;2023-07-02T10:57:13;2.97;;;1.00;;
76131;SDS011;64877;50.994;13.650;2023-07-02T10:59:45;5.07;;;1.40;;
76131;SDS011;64877;50.994;13.650;2023-07-02T11:02:10;2.20;;;1.05;;
76131;SDS011;64877;50.994;13.650;2023-07-02T11:04:36;2.80;;;1.30;;
76131;SDS011;64877;50.994;13.650;2023-07-02T11:07:03;2.88;;;1.00;;
76131;SDS011;64877;50.994;13.650;2023-07-02T11:09:29;5.43;;;1.20;;
76131;SDS011;64877;50.994;13.650;2023-07-02T11:11:55;2.17;;;1.08;;
76131;SDS011;64877;50.994;13.650;2023-07-02T11:14:26;3.70;;;1.17;;
76131;SDS011;64877;50.994;13.650;2023-07-02T11:16:59;2.88;;;1.30;;
76131;SDS011;64877;50.994;13.650;2023-07-02T11:19:27;5.20;;;1.30;;
76131;SDS011;64877;50.994;13.650;2023-07-02T11:21:53;3.70;;;1.40;;
76131;SDS011;64877;50.994;13.650;2023-07-02T11:24:34;2.00;;;1.20;;
76131;SDS011;64877;50.994;13.650;2023-07-02T11:27:02;2.20;;;1.15;;
76131;SDS011;64877;50.994;13.650;2023-07-02T11:29:30;3.65;;;1.20;;
76131;SDS011;64877;50.994;13.650;2023-07-02T11:32:09;3.03;;;1.40;;
76131;SDS011;64877;50.994;13.650;2023-07-02T11:34:36;6.47;;;1.20;;
76131;SDS011;64877;50.994;13.650;2023-07-02T11:37:03;2.78;;;1.27;;
76131;SDS011;64877;50.994;13.650;2023-07-02T11:39:29;4.75;;;1.30;;
76131;SDS011;64877;50.994;13.650;2023-07-02T11:41:55;2.38;;;1.23;;
76131;SDS011;64877;50.994;13.650;2023-07-02T11:44:20;2.83;;;1.13;;
76131;SDS011;64877;50.994;13.650;2023-07-02T11:46:46;2.70;;;1.25;;
76131;SDS011;64877;50.994;13.650;2023-07-02T11:49:12;4.50;;;1.70;;
76131;SDS011;64877;50.994;13.650;2023-07-02T11:51:39;4.45;;;1.58;;
76131;SDS011;64877;50.994;13.650;2023-07-02T11:54:06;7.75;;;1.27;;
76131;SDS011;64877;50.994;13.650;2023-07-02T11:56:32;2.28;;;1.23;;
76131;SDS011;64877;50.994;13.650;2023-07-02T11:58:58;3.08;;;1.17;;
76131;SDS011;64877;50.994;13.650;2023-07-02T12:01:23;1.50;;;0.98;;
76131;SDS011;64877;50.994;13.650;2023-07-02T12:03:49;2.28;;;1.15;;
76131;SDS011;64877;50.994;13.650;2023-07-02T12:06:15;2.20;;;1.33;;
76131;SDS011;64877;50.994;13.650;2023-07-02T12:08:40;4.38;;;1.20;;
76131;SDS011;64877;50.994;13.650;2023-07-02T12:11:06;2.80;;;1.23;;
76131;SDS011;64877;50.994;13.650;2023-07-02T12:13:31;3.70;;;1.40;;
76131;SDS011;64877;50.994;13.650;2023-07-02T12:15:56;4.50;;;1.73;;
76131;SDS011;64877;50.994;13.650;2023-07-02T12:18:22;3.83;;;1.80;;
76131;SDS011;64877;50.994;13.650;2023-07-02T12:20:47;4.50;;;1.60;;
76131;SDS011;64877;50.994;13.650;2023-07-02T12:23:13;4.00;;;1.67;;
76131;SDS011;64877;50.994;13.650;2023-07-02T12:25:38;3.47;;;2.15;;
76131;SDS011;64877;50.994;13.650;2023-07-02T12:28:04;2.88;;;1.70;;
76131;SDS011;64877;50.994;13.650;2023-07-02T12:30:30;3.85;;;1.77;;
76131;SDS011;64877;50.994;13.650;2023-07-02T12:32:56;3.60;;;1.77;;
76131;SDS011;64877;50.994;13.650;2023-07-02T12:35:22;2.40;;;1.40;;
76131;SDS011;64877;50.994;13.650;2023-07-02T12:37:51;3.17;;;1.50;;
76131;SDS011;64877;50.994;13.650;2023-07-02T12:40:18;6.50;;;1.60;;
76131;SDS011;64877;50.994;13.650;2023-07-02T12:45:11;3.88;;;1.55;;
76131;SDS011;64877;50.994;13.650;2023-07-02T12:47:37;4.25;;;2.05;;
76131;SDS011;64877;50.994;13.650;2023-07-02T12:50:04;2.60;;;1.60;;
76131;SDS011;64877;50.994;13.650;2023-07-02T12:52:30;4.95;;;1.85;;
76131;SDS011;64877;50.994;13.650;2023-07-02T12:54:55;3.55;;;1.50;;
76131;SDS011;64877;50.994;13.650;2023-07-02T12:57:21;2.83;;;1.45;;
76131;SDS011;64877;50.994;13.650;2023-07-02T12:59:46;3.55;;;1.27;;
76131;SDS011;64877;50.994;13.650;2023-07-02T13:02:11;4.13;;;1.48;;
76131;SDS011;64877;50.994;13.650;2023-07-02T13:04:37;3.38;;;1.50;;
76131;SDS011;64877;50.994;13.650;2023-07-02T13:07:03;7.18;;;1.73;;
76131;SDS011;64877;50.994;13.650;2023-07-02T13:09:28;4.70;;;1.60;;
76131;SDS011;64877;50.994;13.650;2023-07-02T13:11:54;4.20;;;1.55;;
76131;SDS011;64877;50.994;13.650;2023-07-02T13:14:19;3.83;;;1.50;;
76131;SDS011;64877;50.994;13.650;2023-07-02T13:16:45;2.35;;;1.13;;
76131;SDS011;64877;50.994;13.650;2023-07-02T13:19:10;4.15;;;1.73;;
76131;SDS011;64877;50.994;13.650;2023-07-02T13:21:36;6.78;;;2.38;;
76131;SDS011;64877;50.994;13.650;2023-07-02T13:24:02;4.30;;;2.13;;
76131;SDS011;64877;50.994;13.650;2023-07-02T13:26:27;8.50;;;2.22;;
76131;SDS011;64877;50.994;13.650;2023-07-02T13:28:52;7.45;;;1.92;;
76131;SDS011;64877;50.994;13.650;2023-07-02T13:31:18;7.90;;;2.28;;
76131;SDS011;64877;50.994;13.650;2023-07-02T13:33:43;7.13;;;2.20;;
76131;SDS011;64877;50.994;13.650;2023-07-02T13:36:11;5.60;;;2.10;;
76131;SDS011;64877;50.994;13.650;2023-07-02T13:38:36;4.80;;;1.90;;
76131;SDS011;64877;50.994;13.650;2023-07-02T13:41:02;8.43;;;2.45;;
76131;SDS011;64877;50.994;13.650;2023-07-02T13:43:27;5.72;;;2.13;;
76131;SDS011;64877;50.994;13.650;2023-07-02T13:45:52;4.85;;;2.20;;
76131;SDS011;64877;50.994;13.650;2023-07-02T13:48:18;5.97;;;2.33;;
76131;SDS011;64877;50.994;13.650;2023-07-02T13:50:43;5.75;;;2.33;;
76131;SDS011;64877;50.994;13.650;2023-07-02T13:53:09;4.55;;;1.88;;
76131;SDS011;64877;50.994;13.650;2023-07-02T13:55:34;3.47;;;1.92;;
76131;SDS011;64877;50.994;13.650;2023-07-02T13:57:59;4.63;;;1.80;;
76131;SDS011;64877;50.994;13.650;2023-07-02T14:00:25;3.58;;;1.83;;
76131;SDS011;64877;50.994;13.650;2023-07-02T14:02:52;7.20;;;2.00;;
76131;SDS011;64877;50.994;13.650;2023-07-02T14:05:18;4.55;;;1.60;;
76131;SDS011;64877;50.994;13.650;2023-07-02T14:07:43;5.28;;;1.95;;
76131;SDS011;64877;50.994;13.650;2023-07-02T14:10:09;4.10;;;1.48;;
76131;SDS011;64877;50.994;13.650;2023-07-02T14:12:35;6.82;;;1.92;;
76131;SDS011;64877;50.994;13.650;2023-07-02T14:15:00;5.65;;;1.77;;
76131;SDS011;64877;50.994;13.650;2023-07-02T14:17:25;4.07;;;2.10;;
76131;SDS011;64877;50.994;13.650;2023-07-02T14:19:51;5.00;;;1.83;;
76131;SDS011;64877;50.994;13.650;2023-07-02T14:22:16;3.97;;;2.00;;
76131;SDS011;64877;50.994;13.650;2023-07-02T14:24:41;7.65;;;1.80;;
76131;SDS011;64877;50.994;13.650;2023-07-02T14:27:07;6.88;;;2.10;;
76131;SDS011;64877;50.994;13.650;2023-07-02T14:29:33;6.13;;;1.90;;
76131;SDS011;64877;50.994;13.650;2023-07-02T14:31:59;4.07;;;2.05;;
76131;SDS011;64877;50.994;13.650;2023-07-02T14:34:24;6.30;;;2.38;;
76131;SDS011;64877;50.994;13.650;2023-07-02T14:36:50;4.50;;;2.22;;
76131;SDS011;64877;50.994;13.650;2023-07-02T14:39:15;9.65;;;2.92;;
76131;SDS011;64877;50.994;13.650;2023-07-02T14:41:41;4.70;;;1.92;;
76131;SDS011;64877;50.994;13.650;2023-07-02T14:44:06;4.60;;;2.25;;